sensor_id;sensor_type;location;lat;lon;timestamp;pressure;altitude;pressure_sealevel;temperature;humidity
57024;BME280;42916;54.346;18.562;2022-10-31T00:00:47;100729.65;;;7.04;100.00
57024;BME280;42916;54.346;18.562;2022-10-31T00:03:33;100728.96;;;7.04;100.00
57024;BME280;42916;54.346;18.562;2022-10-31T00:06:00;100727.55;;;7.04;100.00
57024;BME280;42916;54.346;18.562;2022-10-31T00:08:28;100727.25;;;7.03;100.00
57024;BME280;42916;54.346;18.562;2022-10-31T00:10:54;100724.46;;;7.04;100.00
57024;BME280;42916;54.346;18.562;2022-10-31T00:13:21;100724.64;;;7.02;100.00
57024;BME280;42916;54.346;18.562;2022-10-31T00:15:48;100722.98;;;7.01;100.00
57024;BME280;42916;54.346;18.562;2022-10-31T00:18:14;100723.80;;;7.03;100.00
57024;BME280;42916;54.346;18.562;2022-10-31T00:20:41;100719.20;;;7.05;100.00
57024;BME280;42916;54.346;18.562;2022-10-31T00:23:09;100722.83;;;7.05;100.00
57024;BME280;42916;54.346;18.562;2022-10-31T00:25:38;100722.90;;;7.06;100.00
57024;BME280;42916;54.346;18.562;2022-10-31T00:28:07;100728.49;;;7.08;100.00
57024;BME280;42916;54.346;18.562;2022-10-31T00:30:35;100726.52;;;7.10;100.00
57024;BME280;42916;54.346;18.562;2022-10-31T00:33:03;100724.55;;;7.12;100.00
57024;BME280;42916;54.346;18.562;2022-10-31T00:35:32;100729.30;;;7.11;100.00
57024;BME280;42916;54.346;18.562;2022-10-31T00:37:59;100727.65;;;7.10;100.00
57024;BME280;42916;54.346;18.562;2022-10-31T00:40:26;100725.00;;;7.08;100.00
57024;BME280;42916;54.346;18.562;2022-10-31T00:42:53;100721.93;;;7.07;100.00
57024;BME280;42916;54.346;18.562;2022-10-31T00:45:20;100721.79;;;7.05;100.00
57024;BME280;42916;54.346;18.562;2022-10-31T00:47:47;100724.50;;;7.03;100.00
57024;BME280;42916;54.346;18.562;2022-10-31T00:50:13;100728.76;;;7.03;100.00
57024;BME280;42916;54.346;18.562;2022-10-31T00:52:40;100731.07;;;7.02;100.00
57024;BME280;42916;54.346;18.562;2022-10-31T00:55:07;100729.99;;;7.00;100.00
57024;BME280;42916;54.346;18.562;2022-10-31T00:57:33;100736.29;;;6.99;100.00
57024;BME280;42916;54.346;18.562;2022-10-31T01:00:00;100733.60;;;6.96;100.00
57024;BME280;42916;54.346;18.562;2022-10-31T01:02:28;100740.34;;;6.92;100.00
57024;BME280;42916;54.346;18.562;2022-10-31T01:04:55;100736.80;;;6.92;100.00
57024;BME280;42916;54.346;18.562;2022-10-31T01:07:21;100737.36;;;6.92;100.00
57024;BME280;42916;54.346;18.562;2022-10-31T01:09:48;100740.64;;;6.93;100.00
57024;BME280;42916;54.346;18.562;2022-10-31T01:12:15;100744.59;;;6.95;100.00
57024;BME280;42916;54.346;18.562;2022-10-31T01:14:45;100745.12;;;6.98;100.00
57024;BME280;42916;54.346;18.562;2022-10-31T01:17:12;100749.48;;;6.97;100.00
57024;BME280;42916;54.346;18.562;2022-10-31T01:19:39;100748.84;;;7.00;100.00
57024;BME280;42916;54.346;18.562;2022-10-31T01:22:06;100753.48;;;7.01;100.00
57024;BME280;42916;54.346;18.562;2022-10-31T01:24:32;100749.33;;;7.03;100.00
57024;BME280;42916;54.346;18.562;2022-10-31T01:27:02;100754.90;;;7.06;100.00
57024;BME280;42916;54.346;18.562;2022-10-31T01:29:32;100753.29;;;7.13;100.00
57024;BME280;42916;54.346;18.562;2022-10-31T01:31:59;100749.31;;;7.23;100.00
57024;BME280;42916;54.346;18.562;2022-10-31T01:34:26;100749.23;;;7.34;100.00
57024;BME280;42916;54.346;18.562;2022-10-31T01:36:52;100740.84;;;7.54;100.00
57024;BME280;42916;54.346;18.562;2022-10-31T01:39:19;100738.66;;;7.67;100.00
57024;BME280;42916;54.346;18.562;2022-10-31T01:41:48;100740.11;;;7.80;100.00
57024;BME280;42916;54.346;18.562;2022-10-31T01:47:05;100744.27;;;8.02;100.00
57024;BME280;42916;54.346;18.562;2022-10-31T01:52:09;100745.23;;;8.18;100.00
57024;BME280;42916;54.346;18.562;2022-10-31T01:54:46;100739.49;;;8.24;100.00
57024;BME280;42916;54.346;18.562;2022-10-31T01:57:15;100742.56;;;8.31;100.00
57024;BME280;42916;54.346;18.562;2022-10-31T01:59:47;100742.38;;;8.41;100.00
57024;BME280;42916;54.346;18.562;2022-10-31T02:02:17;100742.35;;;8.52;100.00
57024;BME280;42916;54.346;18.562;2022-10-31T02:04:48;100749.18;;;8.63;100.00
57024;BME280;42916;54.346;18.562;2022-10-31T02:07:42;100747.48;;;8.75;100.00
57024;BME280;42916;54.346;18.562;2022-10-31T02:10:07;100748.40;;;8.85;100.00
57024;BME280;42916;54.346;18.562;2022-10-31T02:12:34;100750.81;;;8.93;100.00
57024;BME280;42916;54.346;18.562;2022-10-31T02:15:03;100750.39;;;9.00;100.00
57024;BME280;42916;54.346;18.562;2022-10-31T02:17:31;100748.64;;;9.07;100.00
57024;BME280;42916;54.346;18.562;2022-10-31T02:20:30;100742.84;;;9.20;100.00
57024;BME280;42916;54.346;18.562;2022-10-31T02:23:26;100745.40;;;9.37;100.00
57024;BME280;42916;54.346;18.562;2022-10-31T02:33:55;100740.13;;;9.67;100.00
57024;BME280;42916;54.346;18.562;2022-10-31T02:36:43;100743.41;;;9.79;100.00
57024;BME280;42916;54.346;18.562;2022-10-31T02:39:18;100742.44;;;9.96;100.00
57024;BME280;42916;54.346;18.562;2022-10-31T02:41:49;100753.34;;;10.09;100.00
57024;BME280;42916;54.346;18.562;2022-10-31T02:46:54;100759.59;;;10.32;100.00
57024;BME280;42916;54.346;18.562;2022-10-31T02:49:32;100759.52;;;10.43;100.00
57024;BME280;42916;54.346;18.562;2022-10-31T02:52:01;100760.86;;;10.51;100.00
57024;BME280;42916;54.346;18.562;2022-10-31T02:54:28;100767.40;;;10.58;100.00
57024;BME280;42916;54.346;18.562;2022-10-31T02:57:02;100770.34;;;10.65;100.00
57024;BME280;42916;54.346;18.562;2022-10-31T02:59:31;100771.99;;;10.72;100.00
57024;BME280;42916;54.346;18.562;2022-10-31T03:10:56;100777.49;;;10.70;100.00
57024;BME280;42916;54.346;18.562;2022-10-31T03:14:05;100774.89;;;10.65;100.00
57024;BME280;42916;54.346;18.562;2022-10-31T03:19:16;100772.70;;;10.55;100.00
57024;BME280;42916;54.346;18.562;2022-10-31T03:21:48;100775.00;;;10.54;100.00
57024;BME280;42916;54.346;18.562;2022-10-31T03:24:18;100776.84;;;10.50;100.00
57024;BME280;42916;54.346;18.562;2022-10-31T03:26:51;100783.15;;;10.47;100.00
57024;BME280;42916;54.346;18.562;2022-10-31T03:29:22;100787.98;;;10.44;100.00
57024;BME280;42916;54.346;18.562;2022-10-31T03:31:53;100784.45;;;10.38;100.00
57024;BME280;42916;54.346;18.562;2022-10-31T03:34:22;100787.21;;;10.31;100.00
57024;BME280;42916;54.346;18.562;2022-10-31T03:36:52;100791.66;;;10.26;100.00
57024;BME280;42916;54.346;18.562;2022-10-31T03:39:23;100793.56;;;10.23;100.00
57024;BME280;42916;54.346;18.562;2022-10-31T03:41:57;100791.04;;;10.21;100.00
57024;BME280;42916;54.346;18.562;2022-10-31T03:44:27;100784.52;;;10.20;100.00
57024;BME280;42916;54.346;18.562;2022-10-31T03:46:59;100785.58;;;10.17;100.00
57024;BME280;42916;54.346;18.562;2022-10-31T03:49:28;100781.56;;;10.15;100.00
57024;BME280;42916;54.346;18.562;2022-10-31T03:54:45;100784.11;;;10.12;100.00
57024;BME280;42916;54.346;18.562;2022-10-31T03:57:39;100787.73;;;10.11;100.00
57024;BME280;42916;54.346;18.562;2022-10-31T04:00:12;100786.27;;;10.05;100.00
57024;BME280;42916;54.346;18.562;2022-10-31T04:02:51;100784.55;;;9.98;100.00
57024;BME280;42916;54.346;18.562;2022-10-31T04:05:22;100787.21;;;9.92;100.00
57024;BME280;42916;54.346;18.562;2022-10-31T04:07:53;100783.75;;;9.88;100.00
57024;BME280;42916;54.346;18.562;2022-10-31T04:10:22;100783.22;;;9.83;100.00
57024;BME280;42916;54.346;18.562;2022-10-31T04:12:55;100785.92;;;9.79;100.00
57024;BME280;42916;54.346;18.562;2022-10-31T04:15:31;100790.13;;;9.75;100.00
57024;BME280;42916;54.346;18.562;2022-10-31T04:18:00;100790.77;;;9.70;100.00
57024;BME280;42916;54.346;18.562;2022-10-31T04:20:47;100787.81;;;9.64;100.00
57024;BME280;42916;54.346;18.562;2022-10-31T04:23:24;100787.14;;;9.57;100.00
57024;BME280;42916;54.346;18.562;2022-10-31T04:25:52;100783.81;;;9.49;100.00
57024;BME280;42916;54.346;18.562;2022-10-31T04:28:19;100784.50;;;9.41;100.00
57024;BME280;42916;54.346;18.562;2022-10-31T04:30:46;100783.53;;;9.33;100.00
57024;BME280;42916;54.346;18.562;2022-10-31T04:33:12;100784.33;;;9.23;100.00
57024;BME280;42916;54.346;18.562;2022-10-31T04:35:39;100780.66;;;9.14;100.00
57024;BME280;42916;54.346;18.562;2022-10-31T04:38:06;100779.52;;;9.08;100.00
57024;BME280;42916;54.346;18.562;2022-10-31T04:40:33;100779.63;;;9.01;100.00
57024;BME280;42916;54.346;18.562;2022-10-31T04:43:18;100775.98;;;8.93;100.00
57024;BME280;42916;54.346;18.562;2022-10-31T04:45:45;100774.98;;;8.85;100.00
57024;BME280;42916;54.346;18.562;2022-10-31T04:48:13;100778.17;;;8.78;100.00
57024;BME280;42916;54.346;18.562;2022-10-31T04:50:41;100785.29;;;8.76;100.00
57024;BME280;42916;54.346;18.562;2022-10-31T04:53:08;100782.36;;;8.76;100.00
57024;BME280;42916;54.346;18.562;2022-10-31T04:55:39;100777.63;;;8.74;100.00
57024;BME280;42916;54.346;18.562;2022-10-31T04:58:26;100778.89;;;8.72;100.00
57024;BME280;42916;54.346;18.562;2022-10-31T05:00:54;100778.84;;;8.72;100.00
57024;BME280;42916;54.346;18.562;2022-10-31T05:03:21;100779.10;;;8.74;100.00
57024;BME280;42916;54.346;18.562;2022-10-31T05:05:48;100777.20;;;8.75;100.00
57024;BME280;42916;54.346;18.562;2022-10-31T05:08:15;100778.23;;;8.78;100.00
57024;BME280;42916;54.346;18.562;2022-10-31T05:10:41;100772.60;;;8.81;100.00
57024;BME280;42916;54.346;18.562;2022-10-31T05:13:08;100771.19;;;8.83;100.00
57024;BME280;42916;54.346;18.562;2022-10-31T05:15:53;100769.44;;;8.89;100.00
57024;BME280;42916;54.346;18.562;2022-10-31T05:18:49;100769.20;;;8.95;100.00
57024;BME280;42916;54.346;18.562;2022-10-31T05:21:34;100763.90;;;8.98;100.00
57024;BME280;42916;54.346;18.562;2022-10-31T05:24:03;100765.00;;;9.02;100.00
57024;BME280;42916;54.346;18.562;2022-10-31T05:26:30;100762.04;;;9.05;100.00
57024;BME280;42916;54.346;18.562;2022-10-31T05:28:57;100766.80;;;9.07;100.00
57024;BME280;42916;54.346;18.562;2022-10-31T05:31:23;100767.44;;;9.09;100.00
57024;BME280;42916;54.346;18.562;2022-10-31T05:33:50;100769.19;;;9.11;100.00
57024;BME280;42916;54.346;18.562;2022-10-31T05:36:36;100768.57;;;9.15;100.00
57024;BME280;42916;54.346;18.562;2022-10-31T05:39:09;100767.57;;;9.18;100.00
57024;BME280;42916;54.346;18.562;2022-10-31T05:41:40;100765.11;;;9.22;100.00
57024;BME280;42916;54.346;18.562;2022-10-31T05:44:15;100763.36;;;9.27;100.00
57024;BME280;42916;54.346;18.562;2022-10-31T05:46:52;100766.42;;;9.31;100.00
57024;BME280;42916;54.346;18.562;2022-10-31T05:49:38;100770.23;;;9.36;100.00
57024;BME280;42916;54.346;18.562;2022-10-31T05:52:23;100776.02;;;9.42;100.00
57024;BME280;42916;54.346;18.562;2022-10-31T05:54:57;100780.30;;;9.47;100.00
57024;BME280;42916;54.346;18.562;2022-10-31T05:57:24;100788.98;;;9.54;100.00
57024;BME280;42916;54.346;18.562;2022-10-31T05:59:52;100792.58;;;9.60;100.00
57024;BME280;42916;54.346;18.562;2022-10-31T06:02:20;100792.67;;;9.68;100.00
57024;BME280;42916;54.346;18.562;2022-10-31T06:05:07;100795.55;;;9.75;100.00
57024;BME280;42916;54.346;18.562;2022-10-31T06:07:35;100795.89;;;9.81;100.00
57024;BME280;42916;54.346;18.562;2022-10-31T06:10:05;100798.83;;;9.86;100.00
57024;BME280;42916;54.346;18.562;2022-10-31T06:12:32;100805.02;;;9.92;100.00
57024;BME280;42916;54.346;18.562;2022-10-31T06:15:21;100805.45;;;9.97;100.00
57024;BME280;42916;54.346;18.562;2022-10-31T06:18:00;100804.02;;;10.01;100.00
57024;BME280;42916;54.346;18.562;2022-10-31T06:20:29;100804.44;;;10.06;100.00
57024;BME280;42916;54.346;18.562;2022-10-31T06:23:03;100800.62;;;10.11;100.00
57024;BME280;42916;54.346;18.562;2022-10-31T06:25:32;100800.78;;;10.16;100.00
57024;BME280;42916;54.346;18.562;2022-10-31T06:27:59;100802.06;;;10.21;100.00
57024;BME280;42916;54.346;18.562;2022-10-31T06:30:33;100803.16;;;10.28;100.00
57024;BME280;42916;54.346;18.562;2022-10-31T06:33:05;100798.48;;;10.35;100.00
57024;BME280;42916;54.346;18.562;2022-10-31T06:35:33;100797.06;;;10.43;100.00
57024;BME280;42916;54.346;18.562;2022-10-31T06:38:00;100795.59;;;10.46;100.00
57024;BME280;42916;54.346;18.562;2022-10-31T06:40:38;100795.18;;;10.50;100.00
57024;BME280;42916;54.346;18.562;2022-10-31T06:43:25;100798.48;;;10.52;100.00
57024;BME280;42916;54.346;18.562;2022-10-31T06:46:06;100807.89;;;10.58;100.00
57024;BME280;42916;54.346;18.562;2022-10-31T06:48:42;100816.63;;;10.64;100.00
57024;BME280;42916;54.346;18.562;2022-10-31T06:51:34;100810.44;;;10.68;100.00
57024;BME280;42916;54.346;18.562;2022-10-31T06:54:02;100819.09;;;10.74;100.00
57024;BME280;42916;54.346;18.562;2022-10-31T06:56:28;100813.02;;;10.82;100.00
57024;BME280;42916;54.346;18.562;2022-10-31T06:58:56;100818.23;;;10.88;100.00
57024;BME280;42916;54.346;18.562;2022-10-31T07:01:42;100822.20;;;10.94;100.00
57024;BME280;42916;54.346;18.562;2022-10-31T07:04:12;100826.66;;;11.01;100.00
57024;BME280;42916;54.346;18.562;2022-10-31T07:06:39;100827.27;;;11.09;100.00
57024;BME280;42916;54.346;18.562;2022-10-31T07:09:05;100829.95;;;11.16;100.00
57024;BME280;42916;54.346;18.562;2022-10-31T07:11:32;100832.11;;;11.22;100.00
57024;BME280;42916;54.346;18.562;2022-10-31T07:13:59;100828.42;;;11.27;100.00
57024;BME280;42916;54.346;18.562;2022-10-31T07:16:26;100823.20;;;11.31;100.00
57024;BME280;42916;54.346;18.562;2022-10-31T07:18:53;100824.41;;;11.36;100.00
57024;BME280;42916;54.346;18.562;2022-10-31T07:21:20;100828.31;;;11.42;100.00
57024;BME280;42916;54.346;18.562;2022-10-31T07:23:48;100824.34;;;11.46;100.00
57024;BME280;42916;54.346;18.562;2022-10-31T07:26:34;100829.87;;;11.51;100.00
57024;BME280;42916;54.346;18.562;2022-10-31T07:29:02;100834.40;;;11.55;100.00
57024;BME280;42916;54.346;18.562;2022-10-31T07:31:28;100838.42;;;11.59;100.00
57024;BME280;42916;54.346;18.562;2022-10-31T07:33:58;100838.89;;;11.65;100.00
57024;BME280;42916;54.346;18.562;2022-10-31T07:36:27;100839.21;;;11.69;100.00
57024;BME280;42916;54.346;18.562;2022-10-31T07:38:57;100843.52;;;11.77;100.00
57024;BME280;42916;54.346;18.562;2022-10-31T07:41:25;100846.01;;;11.84;100.00
57024;BME280;42916;54.346;18.562;2022-10-31T07:43:52;100844.45;;;11.91;100.00
57024;BME280;42916;54.346;18.562;2022-10-31T07:46:22;100837.68;;;11.96;100.00
57024;BME280;42916;54.346;18.562;2022-10-31T07:49:07;100843.02;;;12.03;100.00
57024;BME280;42916;54.346;18.562;2022-10-31T07:51:52;100846.27;;;12.11;100.00
57024;BME280;42916;54.346;18.562;2022-10-31T07:54:19;100848.45;;;12.20;100.00
57024;BME280;42916;54.346;18.562;2022-10-31T07:56:45;100846.72;;;12.26;100.00
57024;BME280;42916;54.346;18.562;2022-10-31T07:59:13;100847.04;;;12.31;100.00
57024;BME280;42916;54.346;18.562;2022-10-31T08:01:40;100848.19;;;12.37;100.00
57024;BME280;42916;54.346;18.562;2022-10-31T08:04:25;100846.41;;;12.44;100.00
57024;BME280;42916;54.346;18.562;2022-10-31T08:07:18;100844.50;;;12.49;100.00
57024;BME280;42916;54.346;18.562;2022-10-31T08:09:50;100847.11;;;12.53;100.00
57024;BME280;42916;54.346;18.562;2022-10-31T08:12:22;100842.83;;;12.56;100.00
57024;BME280;42916;54.346;18.562;2022-10-31T08:14:48;100839.39;;;12.57;100.00
57024;BME280;42916;54.346;18.562;2022-10-31T08:17:18;100843.81;;;12.56;100.00
57024;BME280;42916;54.346;18.562;2022-10-31T08:19:55;100842.19;;;12.59;100.00
57024;BME280;42916;54.346;18.562;2022-10-31T08:22:27;100844.92;;;12.59;100.00
57024;BME280;42916;54.346;18.562;2022-10-31T08:24:54;100843.67;;;12.59;100.00
57024;BME280;42916;54.346;18.562;2022-10-31T08:27:20;100844.61;;;12.60;100.00
57024;BME280;42916;54.346;18.562;2022-10-31T08:29:47;100847.11;;;12.64;100.00
57024;BME280;42916;54.346;18.562;2022-10-31T08:32:14;100853.73;;;12.66;100.00
57024;BME280;42916;54.346;18.562;2022-10-31T08:34:59;100852.59;;;12.67;100.00
57024;BME280;42916;54.346;18.562;2022-10-31T08:37:44;100846.03;;;12.72;100.00
57024;BME280;42916;54.346;18.562;2022-10-31T08:40:11;100851.55;;;12.77;100.00
57024;BME280;42916;54.346;18.562;2022-10-31T08:42:40;100849.10;;;12.78;100.00
57024;BME280;42916;54.346;18.562;2022-10-31T08:45:07;100855.88;;;12.79;100.00
57024;BME280;42916;54.346;18.562;2022-10-31T08:47:34;100864.73;;;12.80;100.00
57024;BME280;42916;54.346;18.562;2022-10-31T08:50:01;100869.11;;;12.80;100.00
57024;BME280;42916;54.346;18.562;2022-10-31T08:52:28;100864.80;;;12.81;100.00
57024;BME280;42916;54.346;18.562;2022-10-31T08:54:59;100860.23;;;12.84;100.00
57024;BME280;42916;54.346;18.562;2022-10-31T08:57:44;100860.16;;;12.87;100.00
57024;BME280;42916;54.346;18.562;2022-10-31T09:00:12;100864.67;;;12.92;100.00
57024;BME280;42916;54.346;18.562;2022-10-31T09:03:06;100870.38;;;13.00;100.00
57024;BME280;42916;54.346;18.562;2022-10-31T09:05:33;100866.39;;;13.07;100.00
57024;BME280;42916;54.346;18.562;2022-10-31T09:08:01;100862.30;;;13.10;100.00
57024;BME280;42916;54.346;18.562;2022-10-31T09:10:31;100858.04;;;13.15;100.00
57024;BME280;42916;54.346;18.562;2022-10-31T09:13:01;100851.25;;;13.19;100.00
57024;BME280;42916;54.346;18.562;2022-10-31T09:15:49;100854.77;;;13.17;100.00
57024;BME280;42916;54.346;18.562;2022-10-31T09:18:23;100851.32;;;13.22;100.00
57024;BME280;42916;54.346;18.562;2022-10-31T09:20:57;100850.17;;;13.23;100.00
57024;BME280;42916;54.346;18.562;2022-10-31T09:23:24;100857.31;;;13.26;100.00
57024;BME280;42916;54.346;18.562;2022-10-31T09:25:53;100855.36;;;13.29;100.00
57024;BME280;42916;54.346;18.562;2022-10-31T09:28:28;100857.84;;;13.34;100.00
57024;BME280;42916;54.346;18.562;2022-10-31T09:30:57;100860.40;;;13.36;100.00
57024;BME280;42916;54.346;18.562;2022-10-31T09:33:45;100860.60;;;13.41;100.00
57024;BME280;42916;54.346;18.562;2022-10-31T09:36:34;100853.67;;;13.42;100.00
57024;BME280;42916;54.346;18.562;2022-10-31T09:39:00;100849.73;;;13.43;100.00
57024;BME280;42916;54.346;18.562;2022-10-31T09:50:28;100849.00;;;13.26;100.00
57024;BME280;42916;54.346;18.562;2022-10-31T09:53:09;100856.23;;;13.21;100.00
57024;BME280;42916;54.346;18.562;2022-10-31T09:55:44;100858.46;;;13.21;100.00
57024;BME280;42916;54.346;18.562;2022-10-31T09:58:23;100863.33;;;13.22;100.00
57024;BME280;42916;54.346;18.562;2022-10-31T10:00:52;100872.13;;;13.26;100.00
57024;BME280;42916;54.346;18.562;2022-10-31T10:03:39;100876.09;;;13.31;100.00
57024;BME280;42916;54.346;18.562;2022-10-31T10:06:29;100874.79;;;13.35;100.00
57024;BME280;42916;54.346;18.562;2022-10-31T10:09:34;100871.56;;;13.36;100.00
57024;BME280;42916;54.346;18.562;2022-10-31T10:13:13;100870.15;;;13.37;100.00
57024;BME280;42916;54.346;18.562;2022-10-31T10:19:26;100873.24;;;13.42;100.00
57024;BME280;42916;54.346;18.562;2022-10-31T10:27:01;100868.63;;;13.46;100.00
57024;BME280;42916;54.346;18.562;2022-10-31T10:32:58;100866.88;;;13.40;100.00
57024;BME280;42916;54.346;18.562;2022-10-31T10:35:34;100867.39;;;13.42;100.00
57024;BME280;42916;54.346;18.562;2022-10-31T10:40:41;100856.48;;;13.45;100.00
57024;BME280;42916;54.346;18.562;2022-10-31T10:43:20;100859.84;;;13.47;100.00
57024;BME280;42916;54.346;18.562;2022-10-31T10:45:56;100850.88;;;13.49;100.00
57024;BME280;42916;54.346;18.562;2022-10-31T10:48:56;100850.27;;;13.48;100.00
57024;BME280;42916;54.346;18.562;2022-10-31T10:59:34;100859.09;;;13.49;100.00
57024;BME280;42916;54.346;18.562;2022-10-31T11:02:08;100857.78;;;13.51;100.00
57024;BME280;42916;54.346;18.562;2022-10-31T11:04:42;100857.80;;;13.55;100.00
57024;BME280;42916;54.346;18.562;2022-10-31T11:07:10;100853.70;;;13.56;100.00
57024;BME280;42916;54.346;18.562;2022-10-31T11:09:38;100854.87;;;13.58;100.00
57024;BME280;42916;54.346;18.562;2022-10-31T11:12:10;100850.02;;;13.61;100.00
57024;BME280;42916;54.346;18.562;2022-10-31T11:14:47;100845.84;;;13.64;100.00
57024;BME280;42916;54.346;18.562;2022-10-31T11:17:32;100848.09;;;13.67;100.00
57024;BME280;42916;54.346;18.562;2022-10-31T11:22:48;100844.45;;;13.73;100.00
57024;BME280;42916;54.346;18.562;2022-10-31T11:25:25;100841.04;;;13.76;100.00
57024;BME280;42916;54.346;18.562;2022-10-31T11:28:00;100843.77;;;13.77;100.00
57024;BME280;42916;54.346;18.562;2022-10-31T11:30:27;100848.86;;;13.78;100.00
57024;BME280;42916;54.346;18.562;2022-10-31T11:32:54;100852.14;;;13.78;100.00
57024;BME280;42916;54.346;18.562;2022-10-31T11:35:24;100851.93;;;13.79;100.00
57024;BME280;42916;54.346;18.562;2022-10-31T11:37:53;100848.09;;;13.78;100.00
57024;BME280;42916;54.346;18.562;2022-10-31T11:40:24;100848.09;;;13.75;100.00
57024;BME280;42916;54.346;18.562;2022-10-31T11:42:54;100851.31;;;13.75;100.00
57024;BME280;42916;54.346;18.562;2022-10-31T11:47:51;100853.48;;;13.72;100.00
57024;BME280;42916;54.346;18.562;2022-10-31T11:50:21;100854.56;;;13.71;100.00
57024;BME280;42916;54.346;18.562;2022-10-31T11:52:49;100854.83;;;13.69;100.00
57024;BME280;42916;54.346;18.562;2022-10-31T11:55:32;100856.23;;;13.68;100.00
57024;BME280;42916;54.346;18.562;2022-10-31T11:57:59;100852.36;;;13.68;100.00
57024;BME280;42916;54.346;18.562;2022-10-31T12:00:36;100854.00;;;13.69;100.00
57024;BME280;42916;54.346;18.562;2022-10-31T12:05:55;100853.78;;;13.59;100.00
57024;BME280;42916;54.346;18.562;2022-10-31T12:08:32;100850.20;;;13.54;100.00
57024;BME280;42916;54.346;18.562;2022-10-31T12:13:59;100854.80;;;13.48;100.00
57024;BME280;42916;54.346;18.562;2022-10-31T12:16:46;100855.67;;;13.46;100.00
57024;BME280;42916;54.346;18.562;2022-10-31T12:25:11;100851.21;;;13.42;100.00
57024;BME280;42916;54.346;18.562;2022-10-31T12:30:40;100852.16;;;13.38;100.00
57024;BME280;42916;54.346;18.562;2022-10-31T12:33:22;100849.75;;;13.35;100.00
57024;BME280;42916;54.346;18.562;2022-10-31T12:41:22;100851.10;;;13.29;100.00
57024;BME280;42916;54.346;18.562;2022-10-31T12:57:40;100852.14;;;13.15;100.00
57024;BME280;42916;54.346;18.562;2022-10-31T13:05:32;100842.91;;;13.02;100.00
57024;BME280;42916;54.346;18.562;2022-10-31T13:10:43;100839.89;;;13.06;100.00
57024;BME280;42916;54.346;18.562;2022-10-31T13:13:16;100838.10;;;13.08;100.00
57024;BME280;42916;54.346;18.562;2022-10-31T13:15:51;100834.34;;;13.09;100.00
57024;BME280;42916;54.346;18.562;2022-10-31T13:18:26;100829.23;;;13.15;100.00
57024;BME280;42916;54.346;18.562;2022-10-31T13:20:55;100829.41;;;13.16;100.00
57024;BME280;42916;54.346;18.562;2022-10-31T13:23:32;100833.95;;;13.09;100.00
57024;BME280;42916;54.346;18.562;2022-10-31T13:26:05;100829.30;;;13.07;100.00
57024;BME280;42916;54.346;18.562;2022-10-31T13:28:59;100830.88;;;13.05;100.00
57024;BME280;42916;54.346;18.562;2022-10-31T13:31:28;100836.93;;;13.06;100.00
57024;BME280;42916;54.346;18.562;2022-10-31T13:34:11;100838.56;;;13.04;100.00
57024;BME280;42916;54.346;18.562;2022-10-31T13:44:38;100833.66;;;12.98;100.00
57024;BME280;42916;54.346;18.562;2022-10-31T13:47:41;100835.96;;;13.00;100.00
57024;BME280;42916;54.346;18.562;2022-10-31T13:50:22;100831.13;;;12.96;100.00
57024;BME280;42916;54.346;18.562;2022-10-31T13:52:49;100836.91;;;12.90;100.00
57024;BME280;42916;54.346;18.562;2022-10-31T13:55:41;100845.30;;;12.86;100.00
57024;BME280;42916;54.346;18.562;2022-10-31T13:58:29;100843.88;;;12.81;100.00
57024;BME280;42916;54.346;18.562;2022-10-31T14:01:11;100844.40;;;12.78;100.00
57024;BME280;42916;54.346;18.562;2022-10-31T14:03:41;100847.16;;;12.74;100.00
57024;BME280;42916;54.346;18.562;2022-10-31T14:06:10;100845.02;;;12.69;100.00
57024;BME280;42916;54.346;18.562;2022-10-31T14:08:41;100841.91;;;12.63;100.00
57024;BME280;42916;54.346;18.562;2022-10-31T14:11:25;100843.32;;;12.62;100.00
57024;BME280;42916;54.346;18.562;2022-10-31T14:13:55;100845.45;;;12.58;100.00
57024;BME280;42916;54.346;18.562;2022-10-31T14:16:26;100846.41;;;12.54;100.00
57024;BME280;42916;54.346;18.562;2022-10-31T14:19:08;100849.75;;;12.49;100.00
57024;BME280;42916;54.346;18.562;2022-10-31T14:21:42;100855.16;;;12.45;100.00
57024;BME280;42916;54.346;18.562;2022-10-31T14:24:31;100851.49;;;12.43;100.00
57024;BME280;42916;54.346;18.562;2022-10-31T14:27:04;100847.99;;;12.43;100.00
57024;BME280;42916;54.346;18.562;2022-10-31T14:29:33;100850.86;;;12.41;100.00
57024;BME280;42916;54.346;18.562;2022-10-31T14:32:27;100854.52;;;12.42;100.00
57024;BME280;42916;54.346;18.562;2022-10-31T14:34:55;100854.59;;;12.43;100.00
57024;BME280;42916;54.346;18.562;2022-10-31T14:46:11;100839.05;;;12.46;100.00
57024;BME280;42916;54.346;18.562;2022-10-31T14:51:41;100843.46;;;12.43;100.00
57024;BME280;42916;54.346;18.562;2022-10-31T14:54:15;100838.64;;;12.46;100.00
57024;BME280;42916;54.346;18.562;2022-10-31T14:56:51;100837.52;;;12.45;100.00
57024;BME280;42916;54.346;18.562;2022-10-31T14:59:22;100838.05;;;12.48;100.00
57024;BME280;42916;54.346;18.562;2022-10-31T15:02:00;100843.77;;;12.47;100.00
57024;BME280;42916;54.346;18.562;2022-10-31T15:04:29;100839.91;;;12.43;100.00
57024;BME280;42916;54.346;18.562;2022-10-31T15:07:14;100839.54;;;12.43;100.00
57024;BME280;42916;54.346;18.562;2022-10-31T15:09:42;100839.28;;;12.46;100.00
57024;BME280;42916;54.346;18.562;2022-10-31T15:12:23;100838.70;;;12.47;100.00